createdAt,value
2022-12-24T00:01:06.455Z,7.20
2022-12-24T00:03:34.199Z,7.20
2022-12-24T00:06:08.513Z,7.10
2022-12-24T00:08:35.923Z,7.20
2022-12-24T00:11:02.994Z,7.10
2022-12-24T00:13:29.792Z,7.20
2022-12-24T00:15:56.645Z,7.10
2022-12-24T00:18:23.513Z,7.30
2022-12-24T00:20:50.924Z,7.20
2022-12-24T00:23:18.643Z,7.20
2022-12-24T00:25:45.952Z,7.20
2022-12-24T00:28:13.538Z,7.20
2022-12-24T00:30:42.130Z,7.20
2022-12-24T00:33:09.479Z,7.20
2022-12-24T00:35:38.475Z,7.30
2022-12-24T00:38:05.828Z,7.20
2022-12-24T00:40:33.512Z,7.40
2022-12-24T00:43:00.571Z,7.30
2022-12-24T00:45:28.113Z,7.40
2022-12-24T00:47:55.133Z,7.40
2022-12-24T00:50:21.885Z,7.50
2022-12-24T00:52:48.723Z,7.60
2022-12-24T00:55:15.764Z,7.60
2022-12-24T00:57:42.568Z,7.70
2022-12-24T01:00:09.948Z,7.70
2022-12-24T01:02:36.895Z,7.80
2022-12-24T01:05:12.668Z,8.00
2022-12-24T01:07:44.777Z,8.30
2022-12-24T01:10:13.941Z,8.50
2022-12-24T01:12:40.934Z,8.60
2022-12-24T01:15:08.248Z,8.80
2022-12-24T01:17:36.025Z,8.90
2022-12-24T01:20:04.853Z,9.10
2022-12-24T01:22:31.748Z,9.10
2022-12-24T01:24:58.522Z,9.20
2022-12-24T01:27:25.695Z,9.20
2022-12-24T01:29:52.618Z,9.30
2022-12-24T01:32:19.525Z,9.30
2022-12-24T01:34:46.517Z,9.30
2022-12-24T01:37:13.586Z,9.40
2022-12-24T01:39:40.378Z,9.40
2022-12-24T01:42:43.554Z,9.40
2022-12-24T01:45:42.711Z,9.40
2022-12-24T01:48:30.000Z,9.50
2022-12-24T01:51:04.105Z,9.50
2022-12-24T01:53:33.653Z,9.50
2022-12-24T01:56:01.604Z,9.50
2022-12-24T01:58:28.569Z,9.50
2022-12-24T02:00:55.459Z,9.50
2022-12-24T02:03:22.371Z,9.50
2022-12-24T02:05:52.593Z,9.50
2022-12-24T02:08:20.169Z,9.50
2022-12-24T02:10:49.122Z,9.50
2022-12-24T02:13:19.179Z,9.60
2022-12-24T02:16:03.686Z,9.50
2022-12-24T02:19:10.930Z,9.50
2022-12-24T02:21:50.614Z,9.50
2022-12-24T02:24:27.140Z,9.50
2022-12-24T02:27:09.282Z,9.60
2022-12-24T02:30:01.229Z,9.60
2022-12-24T02:32:38.786Z,9.60
2022-12-24T02:35:27.549Z,9.60
2022-12-24T02:38:28.335Z,9.60
2022-12-24T02:41:10.950Z,9.60
2022-12-24T02:43:42.435Z,9.50
2022-12-24T02:46:14.052Z,9.50
2022-12-24T02:48:44.170Z,9.60
2022-12-24T02:51:12.093Z,9.40
2022-12-24T02:53:39.649Z,9.50
2022-12-24T02:56:35.096Z,9.50
2022-12-24T02:59:10.923Z,9.40
2022-12-24T03:01:47.298Z,9.40
2022-12-24T03:04:53.619Z,9.40
2022-12-24T03:07:27.519Z,9.40
2022-12-24T03:10:17.111Z,9.40
2022-12-24T03:12:50.754Z,9.40
2022-12-24T03:15:20.438Z,9.30
2022-12-24T03:17:50.875Z,9.30
2022-12-24T03:20:22.663Z,9.30
2022-12-24T03:22:49.551Z,9.30
2022-12-24T03:25:16.664Z,9.30
2022-12-24T03:27:44.660Z,9.30
2022-12-24T03:30:14.314Z,9.30
2022-12-24T03:32:41.216Z,9.30
2022-12-24T03:35:08.810Z,9.30
2022-12-24T03:37:35.607Z,9.30
2022-12-24T03:40:02.451Z,9.30
2022-12-24T03:42:29.241Z,9.20
2022-12-24T03:44:56.014Z,9.40
2022-12-24T03:47:23.122Z,9.30
2022-12-24T03:49:50.008Z,9.30
2022-12-24T03:52:16.787Z,9.30
2022-12-24T03:54:43.461Z,9.30
2022-12-24T03:57:10.248Z,9.30
2022-12-24T03:59:36.993Z,9.30
2022-12-24T04:02:03.971Z,9.30
2022-12-24T04:04:32.357Z,9.30
2022-12-24T04:06:59.620Z,9.40
2022-12-24T04:09:26.361Z,9.30
2022-12-24T04:11:53.246Z,9.40
2022-12-24T04:14:19.996Z,9.20
2022-12-24T04:16:46.885Z,9.30
2022-12-24T04:19:13.675Z,9.30
2022-12-24T04:21:40.477Z,9.30
2022-12-24T04:24:07.270Z,9.30
2022-12-24T04:26:34.013Z,9.30
2022-12-24T04:29:00.800Z,9.30
2022-12-24T04:31:27.605Z,9.40
2022-12-24T04:33:54.507Z,9.40
2022-12-24T04:36:21.409Z,9.30
2022-12-24T04:38:49.349Z,9.30
2022-12-24T04:41:23.776Z,9.30
2022-12-24T04:43:53.575Z,9.30
2022-12-24T04:46:26.583Z,9.30
2022-12-24T04:48:54.864Z,9.30
2022-12-24T04:51:22.517Z,9.30
2022-12-24T04:53:49.307Z,9.30
2022-12-24T04:56:28.230Z,9.20
2022-12-24T04:58:55.537Z,9.30
2022-12-24T05:01:24.932Z,9.10
2022-12-24T05:03:52.359Z,9.10
2022-12-24T05:06:22.647Z,9.20
2022-12-24T05:08:49.885Z,9.20
2022-12-24T05:11:17.190Z,9.20
2022-12-24T05:13:47.409Z,9.30
2022-12-24T05:16:16.466Z,9.20
2022-12-24T05:18:43.347Z,9.20
2022-12-24T05:21:20.654Z,9.30
2022-12-24T05:24:06.477Z,9.20
2022-12-24T05:26:41.100Z,9.10
2022-12-24T05:29:09.385Z,9.20
2022-12-24T05:31:36.518Z,9.20
2022-12-24T05:34:03.530Z,9.20
2022-12-24T05:36:30.604Z,9.20
2022-12-24T05:38:58.113Z,9.20
2022-12-24T05:41:25.221Z,9.20
2022-12-24T05:43:52.303Z,9.20
2022-12-24T05:46:21.736Z,9.20
2022-12-24T05:48:49.417Z,9.20
2022-12-24T05:51:19.644Z,9.20
2022-12-24T05:53:47.242Z,9.20
2022-12-24T05:56:17.027Z,9.20
2022-12-24T05:58:44.314Z,9.20
2022-12-24T06:01:12.654Z,9.20
2022-12-24T06:03:40.080Z,9.20
2022-12-24T06:06:09.949Z,9.10
2022-12-24T06:08:39.765Z,9.10
2022-12-24T06:11:10.259Z,9.10
2022-12-24T06:13:37.610Z,9.10
2022-12-24T06:16:07.087Z,9.20
2022-12-24T06:18:35.473Z,9.10
2022-12-24T06:21:03.038Z,9.10
2022-12-24T06:23:31.812Z,9.10
2022-12-24T06:26:01.066Z,9.10
2022-12-24T06:28:33.432Z,9.10
2022-12-24T06:31:03.131Z,9.10
2022-12-24T06:33:32.904Z,9.00
2022-12-24T06:36:01.280Z,9.00
2022-12-24T06:38:31.850Z,9.00
2022-12-24T06:41:00.521Z,9.00
2022-12-24T06:43:28.739Z,9.00
2022-12-24T06:45:55.468Z,9.00
2022-12-24T06:48:22.250Z,8.90
2022-12-24T06:50:49.019Z,8.90
2022-12-24T06:53:15.779Z,8.90
2022-12-24T06:55:42.527Z,8.80
2022-12-24T06:58:09.303Z,8.80
2022-12-24T07:00:36.350Z,8.70
2022-12-24T07:03:03.278Z,8.70
2022-12-24T07:05:30.738Z,8.80
2022-12-24T07:07:57.513Z,8.80
2022-12-24T07:10:24.347Z,8.70
2022-12-24T07:12:51.381Z,8.70
2022-12-24T07:15:18.222Z,8.70
2022-12-24T07:17:45.269Z,8.70
2022-12-24T07:20:16.963Z,8.70
2022-12-24T07:22:44.035Z,8.70
2022-12-24T07:25:11.895Z,8.70
2022-12-24T07:27:39.286Z,8.80
2022-12-24T07:30:07.005Z,8.80
2022-12-24T07:32:33.925Z,8.80
2022-12-24T07:35:00.675Z,8.80
2022-12-24T07:37:27.505Z,8.80
2022-12-24T07:39:54.369Z,8.80
2022-12-24T07:42:21.135Z,8.70
2022-12-24T07:44:48.031Z,8.70
2022-12-24T07:47:14.949Z,8.60
2022-12-24T07:49:41.797Z,8.70
2022-12-24T07:52:08.605Z,8.60
2022-12-24T07:54:35.337Z,8.50
2022-12-24T07:57:02.150Z,8.50
2022-12-24T07:59:28.932Z,8.50
2022-12-24T08:01:55.865Z,8.50
2022-12-24T08:04:22.780Z,8.50
2022-12-24T08:06:49.935Z,8.50
2022-12-24T08:09:16.934Z,8.60
2022-12-24T08:11:51.400Z,8.60
2022-12-24T08:14:19.473Z,8.60
2022-12-24T08:16:46.374Z,8.70
2022-12-24T08:19:13.281Z,8.70
2022-12-24T08:21:40.098Z,8.80
2022-12-24T08:24:07.102Z,8.90
2022-12-24T08:26:33.953Z,8.80
2022-12-24T08:29:01.652Z,8.80
2022-12-24T08:31:28.512Z,8.80
2022-12-24T08:33:55.291Z,8.90
2022-12-24T08:36:22.075Z,8.80
2022-12-24T08:38:48.843Z,8.90
2022-12-24T08:41:15.620Z,8.90
2022-12-24T08:43:42.417Z,9.00
2022-12-24T08:46:10.742Z,9.00
2022-12-24T08:48:37.741Z,9.00
2022-12-24T08:51:12.096Z,8.90
2022-12-24T08:53:39.213Z,8.90
2022-12-24T08:56:08.644Z,9.00
2022-12-24T08:58:36.130Z,8.90
2022-12-24T09:01:14.794Z,8.90
2022-12-24T09:03:42.138Z,8.90
2022-12-24T09:06:09.949Z,8.80
2022-12-24T09:08:37.119Z,8.80
2022-12-24T09:11:10.160Z,8.80
2022-12-24T09:13:37.785Z,8.90
2022-12-24T09:16:05.241Z,8.80
2022-12-24T09:18:32.275Z,9.00
2022-12-24T09:21:04.880Z,9.00
2022-12-24T09:23:33.695Z,9.10
2022-12-24T09:26:00.503Z,9.10
2022-12-24T09:28:27.283Z,9.20
2022-12-24T09:30:59.462Z,9.10
2022-12-24T09:33:27.102Z,9.20
2022-12-24T09:35:54.251Z,9.30
2022-12-24T09:38:21.637Z,9.40
2022-12-24T09:40:49.426Z,9.40
2022-12-24T09:43:24.697Z,9.40
2022-12-24T09:45:59.002Z,9.30
2022-12-24T09:48:30.291Z,9.40
2022-12-24T09:51:06.284Z,9.40
2022-12-24T09:53:54.729Z,9.30
2022-12-24T09:56:28.247Z,9.40
2022-12-24T09:58:59.745Z,9.50
2022-12-24T10:01:29.350Z,9.60
2022-12-24T10:04:02.703Z,9.60
2022-12-24T10:06:53.723Z,9.70
2022-12-24T10:09:43.295Z,9.70
2022-12-24T10:12:25.559Z,9.70
2022-12-24T10:15:01.603Z,9.70
2022-12-24T10:17:31.270Z,9.80
2022-12-24T10:20:25.803Z,9.70
2022-12-24T10:22:52.513Z,9.70
2022-12-24T10:25:28.765Z,9.60
2022-12-24T10:27:58.491Z,9.60
2022-12-24T10:30:25.539Z,9.50
2022-12-24T10:32:54.265Z,9.50
2022-12-24T10:35:29.111Z,9.50
2022-12-24T10:37:58.063Z,9.50
2022-12-24T10:40:24.847Z,9.40
2022-12-24T10:42:52.025Z,9.30
2022-12-24T10:45:21.893Z,9.40
2022-12-24T10:47:52.937Z,9.40
2022-12-24T10:50:29.865Z,9.30
2022-12-24T10:53:07.173Z,9.40
2022-12-24T10:55:34.082Z,9.30
2022-12-24T10:58:04.753Z,9.40
2022-12-24T11:00:36.380Z,9.40
2022-12-24T11:03:13.852Z,9.50
2022-12-24T11:05:41.219Z,9.50
2022-12-24T11:08:14.064Z,9.50
2022-12-24T11:10:45.105Z,9.60
2022-12-24T11:13:40.272Z,9.50
2022-12-24T11:16:22.220Z,9.60
2022-12-24T11:18:52.694Z,9.60
2022-12-24T11:21:22.752Z,9.60
2022-12-24T11:23:53.130Z,9.70
2022-12-24T11:26:28.290Z,9.80
2022-12-24T11:29:20.175Z,9.80
2022-12-24T11:31:48.024Z,9.80
2022-12-24T11:34:33.290Z,9.80
2022-12-24T11:37:31.089Z,9.70
2022-12-24T11:40:01.245Z,9.80
2022-12-24T11:42:38.154Z,9.80
2022-12-24T11:45:27.676Z,9.80
2022-12-24T11:47:55.774Z,9.80
2022-12-24T11:50:35.830Z,9.80
2022-12-24T11:53:19.263Z,9.90
2022-12-24T11:55:53.385Z,10.00
2022-12-24T11:58:36.880Z,10.00
2022-12-24T12:01:15.952Z,10.00
2022-12-24T12:04:10.960Z,10.00
2022-12-24T12:06:55.588Z,10.00
2022-12-24T12:09:24.610Z,10.00
2022-12-24T12:12:02.717Z,10.00
2022-12-24T12:14:38.220Z,10.10
2022-12-24T12:17:31.793Z,10.10
2022-12-24T12:20:04.884Z,10.20
2022-12-24T12:22:38.875Z,10.20
2022-12-24T12:25:10.662Z,10.20
2022-12-24T12:27:43.485Z,10.20
2022-12-24T12:30:18.006Z,10.30
2022-12-24T12:32:53.760Z,10.30
2022-12-24T12:35:31.877Z,10.20
2022-12-24T12:38:06.069Z,10.30
2022-12-24T12:40:53.555Z,10.30
2022-12-24T12:43:39.912Z,10.30
2022-12-24T12:46:21.123Z,10.30
2022-12-24T12:49:09.155Z,10.30
2022-12-24T12:51:40.964Z,10.30
2022-12-24T12:54:39.917Z,10.40
2022-12-24T12:57:12.588Z,10.40
2022-12-24T12:59:43.206Z,10.40
2022-12-24T13:02:38.100Z,10.40
2022-12-24T13:05:17.199Z,10.40
2022-12-24T13:08:02.086Z,10.40
2022-12-24T13:10:41.002Z,10.30
2022-12-24T13:13:15.426Z,10.40
2022-12-24T13:16:16.021Z,10.40
2022-12-24T13:19:05.498Z,10.40
2022-12-24T13:21:32.878Z,10.30
2022-12-24T13:24:14.684Z,10.30
2022-12-24T13:26:42.618Z,10.30
2022-12-24T13:29:39.608Z,10.30
2022-12-24T13:32:21.786Z,10.30
2022-12-24T13:35:20.489Z,10.30
2022-12-24T13:37:48.659Z,10.20
2022-12-24T13:40:21.419Z,10.20
2022-12-24T13:42:51.135Z,10.20
2022-12-24T13:45:30.590Z,10.20
2022-12-24T13:48:06.666Z,10.20
2022-12-24T13:50:49.690Z,10.20
2022-12-24T13:53:40.744Z,10.20
2022-12-24T13:56:13.543Z,10.20
2022-12-24T13:58:47.053Z,10.10
2022-12-24T14:01:21.821Z,10.10
2022-12-24T14:03:55.811Z,10.00
2022-12-24T14:06:41.874Z,10.00
2022-12-24T14:09:16.852Z,9.90
2022-12-24T14:11:59.286Z,9.80
2022-12-24T14:14:28.235Z,9.80
2022-12-24T14:17:01.903Z,9.70
2022-12-24T14:19:39.121Z,9.70
2022-12-24T14:22:36.198Z,9.70
2022-12-24T14:25:15.321Z,9.70
2022-12-24T14:27:42.088Z,9.70
2022-12-24T14:30:25.565Z,9.70
2022-12-24T14:32:53.467Z,9.70
2022-12-24T14:35:20.295Z,9.60
2022-12-24T14:38:12.943Z,9.60
2022-12-24T14:41:03.063Z,9.60
2022-12-24T14:43:41.733Z,9.50
2022-12-24T14:46:39.464Z,9.40
2022-12-24T14:49:12.162Z,9.30
2022-12-24T14:51:50.030Z,9.20
2022-12-24T14:54:38.898Z,9.10
2022-12-24T14:57:11.661Z,9.10
2022-12-24T14:59:51.451Z,9.00
2022-12-24T15:02:44.679Z,9.00
2022-12-24T15:05:21.555Z,9.00
2022-12-24T15:07:57.482Z,9.00
2022-12-24T15:10:26.942Z,9.00
2022-12-24T15:12:56.218Z,9.00
2022-12-24T15:15:23.403Z,9.00
2022-12-24T15:17:50.658Z,9.00
2022-12-24T15:20:21.189Z,9.00
2022-12-24T15:22:51.893Z,9.00
2022-12-24T15:25:28.007Z,9.00
2022-12-24T15:27:55.399Z,9.00
2022-12-24T15:30:25.506Z,9.00
2022-12-24T15:32:58.261Z,9.00
2022-12-24T15:35:50.158Z,8.90
2022-12-24T15:38:37.759Z,9.00
2022-12-24T15:41:18.940Z,9.00
2022-12-24T15:43:47.349Z,8.90
2022-12-24T15:46:24.285Z,8.90
2022-12-24T15:48:52.661Z,8.90
2022-12-24T15:51:38.437Z,8.90
2022-12-24T15:54:17.608Z,9.00
2022-12-24T15:56:45.894Z,8.90
2022-12-24T15:59:16.501Z,8.90
2022-12-24T16:01:44.916Z,8.90
2022-12-24T16:04:30.197Z,8.80
2022-12-24T16:06:58.578Z,8.80
2022-12-24T16:09:42.975Z,8.80
2022-12-24T16:12:20.322Z,8.80
2022-12-24T16:14:57.575Z,8.80
2022-12-24T16:17:32.779Z,8.80
2022-12-24T16:20:07.472Z,8.80
2022-12-24T16:22:39.704Z,8.70
2022-12-24T16:25:26.357Z,8.70
2022-12-24T16:27:53.746Z,8.70
2022-12-24T16:30:21.576Z,8.70
2022-12-24T16:32:50.810Z,8.70
2022-12-24T16:35:24.479Z,8.60
2022-12-24T16:37:51.331Z,8.60
2022-12-24T16:40:24.942Z,8.40
2022-12-24T16:43:12.342Z,8.60
2022-12-24T16:45:39.201Z,8.60
2022-12-24T16:48:07.510Z,8.60
2022-12-24T16:50:35.056Z,8.50
2022-12-24T16:53:02.130Z,8.50
2022-12-24T16:55:29.131Z,8.50
2022-12-24T16:57:56.018Z,8.50
2022-12-24T17:00:23.540Z,8.40
2022-12-24T17:02:50.691Z,8.40
2022-12-24T17:05:18.110Z,8.40
2022-12-24T17:07:45.003Z,8.30
2022-12-24T17:10:13.871Z,8.30
2022-12-24T17:12:41.440Z,8.20
2022-12-24T17:15:08.781Z,8.10
2022-12-24T17:17:36.001Z,8.10
2022-12-24T17:20:04.722Z,8.00
2022-12-24T17:22:31.821Z,8.00
2022-12-24T17:24:59.094Z,8.00
2022-12-24T17:27:26.178Z,7.90
2022-12-24T17:29:53.121Z,7.80
2022-12-24T17:32:20.090Z,7.80
2022-12-24T17:34:46.996Z,7.70
2022-12-24T17:37:14.297Z,7.60
2022-12-24T17:39:41.118Z,7.60
2022-12-24T17:42:08.265Z,7.70
2022-12-24T17:44:35.261Z,7.50
2022-12-24T17:47:05.170Z,7.60
2022-12-24T17:49:32.194Z,7.50
2022-12-24T17:51:58.983Z,7.50
2022-12-24T17:54:25.812Z,7.50
2022-12-24T17:56:52.594Z,7.50
2022-12-24T17:59:19.340Z,7.60
2022-12-24T18:01:46.278Z,7.60
2022-12-24T18:04:13.107Z,7.50
2022-12-24T18:06:45.565Z,7.60
2022-12-24T18:09:15.703Z,7.60
2022-12-24T18:11:42.531Z,7.50
2022-12-24T18:14:12.179Z,7.40
2022-12-24T18:16:40.387Z,7.40
2022-12-24T18:19:10.324Z,7.40
2022-12-24T18:21:37.483Z,7.30
2022-12-24T18:24:05.126Z,7.30
2022-12-24T18:26:33.538Z,7.20
2022-12-24T18:29:04.648Z,7.20
2022-12-24T18:31:33.730Z,7.00
2022-12-24T18:34:02.499Z,7.20
2022-12-24T18:36:29.437Z,7.20
2022-12-24T18:38:56.665Z,7.30
2022-12-24T18:41:26.928Z,7.30
2022-12-24T18:43:54.593Z,7.30
2022-12-24T18:46:27.343Z,7.20
2022-12-24T18:48:55.871Z,7.30
2022-12-24T18:51:24.580Z,7.30
2022-12-24T18:53:51.583Z,7.30
2022-12-24T18:56:22.069Z,7.30
2022-12-24T18:58:52.141Z,7.20
2022-12-24T19:01:25.508Z,7.20
2022-12-24T19:03:53.232Z,7.20
2022-12-24T19:06:23.472Z,7.20
2022-12-24T19:09:00.950Z,7.20
2022-12-24T19:11:31.307Z,7.10
2022-12-24T19:13:59.092Z,7.10
2022-12-24T19:16:27.142Z,7.00
2022-12-24T19:18:54.236Z,6.90
2022-12-24T19:21:21.140Z,7.00
2022-12-24T19:23:48.740Z,7.00
2022-12-24T19:26:17.687Z,6.90
2022-12-24T19:28:44.973Z,6.90
2022-12-24T19:31:15.012Z,6.90
2022-12-24T19:33:44.623Z,6.90
2022-12-24T19:36:14.507Z,6.80
2022-12-24T19:38:41.634Z,6.70
2022-12-24T19:41:10.838Z,6.70
2022-12-24T19:43:41.091Z,6.60
2022-12-24T19:46:12.445Z,6.50
2022-12-24T19:48:39.461Z,6.50
2022-12-24T19:51:09.130Z,6.40
2022-12-24T19:53:36.479Z,6.30
2022-12-24T19:56:04.554Z,6.30
2022-12-24T19:58:32.736Z,6.30
2022-12-24T20:01:15.923Z,6.30
2022-12-24T20:03:44.472Z,6.30
2022-12-24T20:06:11.666Z,6.20
2022-12-24T20:08:39.439Z,6.20
2022-12-24T20:11:09.188Z,6.20
2022-12-24T20:13:37.577Z,6.10
2022-12-24T20:16:16.539Z,6.20
2022-12-24T20:18:43.802Z,6.20
2022-12-24T20:21:13.100Z,6.20
2022-12-24T20:23:41.054Z,6.20
2022-12-24T20:26:11.871Z,6.10
2022-12-24T20:28:39.384Z,6.20
2022-12-24T20:31:11.457Z,6.20
2022-12-24T20:33:39.056Z,6.10
2022-12-24T20:36:06.232Z,6.00
2022-12-24T20:38:33.061Z,6.00
2022-12-24T20:41:00.199Z,5.90
2022-12-24T20:43:30.675Z,5.90
2022-12-24T20:46:01.825Z,5.80
2022-12-24T20:48:29.799Z,5.80
2022-12-24T20:50:56.929Z,5.70
2022-12-24T20:53:23.775Z,5.60
2022-12-24T20:55:54.609Z,5.50
2022-12-24T20:58:21.795Z,5.40
2022-12-24T21:00:48.732Z,5.30
2022-12-24T21:03:17.246Z,5.20
2022-12-24T21:05:45.461Z,5.10
2022-12-24T21:08:13.573Z,5.10
2022-12-24T21:10:41.328Z,5.00
2022-12-24T21:13:08.405Z,4.90
2022-12-24T21:15:38.892Z,4.80
2022-12-24T21:18:11.726Z,4.60
2022-12-24T21:20:43.051Z,4.70
2022-12-24T21:23:10.317Z,4.80
2022-12-24T21:25:37.359Z,4.80
2022-12-24T21:28:04.231Z,4.90
2022-12-24T21:30:32.166Z,5.00
2022-12-24T21:32:59.114Z,5.00
2022-12-24T21:35:26.367Z,5.20
2022-12-24T21:37:53.533Z,5.00
2022-12-24T21:40:22.053Z,5.00
2022-12-24T21:42:48.923Z,4.90
2022-12-24T21:45:15.837Z,4.80
2022-12-24T21:47:44.702Z,5.00
2022-12-24T21:50:32.441Z,5.00
2022-12-24T21:53:18.480Z,5.10
2022-12-24T21:55:45.857Z,5.20
2022-12-24T21:58:12.886Z,5.20
2022-12-24T22:00:43.049Z,5.20
2022-12-24T22:03:10.154Z,5.20
2022-12-24T22:05:37.255Z,5.20
2022-12-24T22:08:22.724Z,5.20
2022-12-24T22:11:08.384Z,5.30
2022-12-24T22:13:35.295Z,5.30
2022-12-24T22:16:02.300Z,5.40
2022-12-24T22:18:29.834Z,5.50
2022-12-24T22:20:56.692Z,5.60
2022-12-24T22:23:23.707Z,5.60
2022-12-24T22:25:52.369Z,5.70
2022-12-24T22:28:20.307Z,5.80
2022-12-24T22:30:47.211Z,5.90
2022-12-24T22:33:14.289Z,5.90
2022-12-24T22:35:43.085Z,6.00
2022-12-24T22:38:10.907Z,6.00
2022-12-24T22:40:40.730Z,6.10
2022-12-24T22:43:07.645Z,6.10
2022-12-24T22:45:34.482Z,6.10
2022-12-24T22:48:01.310Z,6.00
2022-12-24T22:50:28.145Z,6.20
2022-12-24T22:52:54.884Z,6.10
2022-12-24T22:55:22.492Z,6.10
2022-12-24T22:57:49.419Z,6.00
2022-12-24T23:00:37.595Z,6.00
2022-12-24T23:03:05.646Z,6.10
2022-12-24T23:05:32.584Z,6.00
2022-12-24T23:07:59.511Z,6.00
2022-12-24T23:10:26.325Z,5.90
2022-12-24T23:13:15.219Z,6.00
2022-12-24T23:15:42.763Z,6.00
2022-12-24T23:18:10.304Z,6.00
2022-12-24T23:20:43.052Z,5.90
2022-12-24T23:23:09.785Z,5.90
2022-12-24T23:25:37.351Z,5.90
2022-12-24T23:28:04.474Z,5.80
2022-12-24T23:30:31.636Z,5.60
2022-12-24T23:32:58.652Z,5.60
2022-12-24T23:35:26.068Z,5.40
2022-12-24T23:37:52.854Z,5.30
2022-12-24T23:40:19.671Z,5.30
2022-12-24T23:42:46.489Z,5.10
2022-12-24T23:45:13.679Z,5.00
2022-12-24T23:47:40.416Z,5.00
2022-12-24T23:50:07.922Z,4.90
2022-12-24T23:52:34.761Z,4.90
2022-12-24T23:55:01.489Z,4.90
2022-12-24T23:57:28.267Z,4.90
2022-12-24T23:59:55.014Z,4.80
